Scelkovo, Russia
Current Conditions -  °F | °C
As of 12:30 PM on Saturday 25 Oct 2014 (Local Time) from UUEE Reporting Station
Clear Clear  
Wind Chill: 25°   Ceiling: Unl
Heat Index: 25°   Visibility: 6mi
Dew Point: 14°   Wind: 2mph
Humidity: 64%   Direction: NA
Pressure: 30.65"   Gusts: NA
Location:  56.15°N, 37.1°E
Report Text: UUEE 250930Z VRB01MPS CAVOK M04/M10 Q1038 07000062 57150151NOSIG
Loading
Personal Weather Stations






























Interactive Weather Map
Tropical Storm Tracking
New forecast layout! Learn more

10-Day Weather Forecast

Advertisements
Track Severe Weather on mobile